Time;durP1;ratioP1;P1;durP2;ratioP2;P2;SDS_P1;SDS_P2;PMS_P1;PMS_P2;Temp;Humidity;BMP_temperature;BMP_pressure;BME280_temperature;BME280_humidity;BME280_pressure;Samples;Min_cycle;Max_cycle;Signal;HPM_P1;HPM_P2
2023/03/14 00:00:51;;;;;;;3.70;2.10;;;;;;;10.50;100.00;98431.22;4881003;29;20043;-79
2023/03/14 00:03:17;;;;;;;4.18;2.42;;;;;;;10.40;100.00;98422.13;4912637;29;20546;-79
2023/03/14 00:05:44;;;;;;;4.03;2.90;;;;;;;10.33;100.00;98431.31;4897212;29;20759;-78
2023/03/14 00:08:11;;;;;;;3.03;2.40;;;;;;;10.27;100.00;98431.66;4895759;29;20036;-81
2023/03/14 00:10:38;;;;;;;3.33;2.28;;;;;;;10.23;100.00;98420.41;4865237;29;20044;-78
2023/03/14 00:13:08;;;;;;;3.38;2.58;;;;;;;10.23;100.00;98420.41;4880998;29;20036;-78
2023/03/14 00:15:36;;;;;;;4.10;2.40;;;;;;;10.27;100.00;98423.75;4913204;29;20056;-79
2023/03/14 00:18:05;;;;;;;4.50;2.30;;;;;;;10.21;100.00;98416.97;4881985;29;20040;-78
2023/03/14 00:20:35;;;;;;;4.10;3.30;;;;;;;10.25;100.00;98415.03;4856538;29;20040;-81
2023/03/14 00:23:02;;;;;;;3.55;2.00;;;;;;;10.24;100.00;98402.78;4883250;29;20552;-79
2023/03/14 00:25:29;;;;;;;2.70;2.17;;;;;;;10.18;100.00;98401.31;4881731;29;20573;-79
2023/03/14 00:27:56;;;;;;;6.30;3.00;;;;;;;10.10;100.00;98401.75;4898643;29;20040;-79
2023/03/14 00:30:22;;;;;;;4.28;2.47;;;;;;;10.02;100.00;98403.09;4899781;29;20040;-78
2023/03/14 00:32:49;;;;;;;5.88;2.35;;;;;;;10.01;100.00;98394.31;4898825;29;20448;-78
2023/03/14 00:35:16;;;;;;;3.90;2.75;;;;;;;9.93;100.00;98385.97;4900407;29;20048;-81
2023/03/14 00:37:43;;;;;;;3.13;1.77;;;;;;;10.13;100.00;98377.81;4884704;29;20052;-78
2023/03/14 00:40:10;;;;;;;3.65;2.30;;;;;;;10.12;100.00;98381.41;4884038;29;20036;-78
2023/03/14 00:42:36;;;;;;;3.70;2.00;;;;;;;10.13;100.00;98382.25;4899784;29;20051;-79
2023/03/14 00:45:03;;;;;;;3.00;1.85;;;;;;;10.07;100.00;98383.41;4897110;29;20045;-78
2023/03/14 00:47:30;;;;;;;2.90;2.20;;;;;;;10.18;100.00;98364.38;4867323;29;20061;-78
2023/03/14 00:49:57;;;;;;;2.38;1.58;;;;;;;10.10;100.00;98350.75;4880815;29;20041;-79
2023/03/14 00:52:23;;;;;;;2.45;2.00;;;;;;;10.10;100.00;98372.72;4883846;29;20046;-78
2023/03/14 00:54:50;;;;;;;2.85;1.83;;;;;;;10.21;100.00;98371.25;4884520;29;20048;-78
2023/03/14 00:57:17;;;;;;;2.30;1.80;;;;;;;10.15;100.00;98377.72;4915423;29;20047;-79
2023/03/14 00:59:43;;;;;;;3.05;1.80;;;;;;;10.18;100.00;98374.94;4899594;29;20048;-79
2023/03/14 01:02:10;;;;;;;2.70;1.80;;;;;;;10.18;100.00;98363.53;4884738;29;20605;-78
2023/03/14 01:04:39;;;;;;;2.40;1.67;;;;;;;10.15;100.00;98365.38;4901237;29;20414;-81
2023/03/14 01:07:05;;;;;;;2.08;1.40;;;;;;;10.05;100.00;98364.19;4900137;29;20072;-80
2023/03/14 01:09:32;;;;;;;2.72;1.85;;;;;;;10.07;100.00;98335.09;4884534;29;20055;-78
2023/03/14 01:11:59;;;;;;;4.85;1.58;;;;;;;10.04;100.00;98348.44;4884302;29;20044;-78
2023/03/14 01:14:26;;;;;;;2.63;1.70;;;;;;;9.99;100.00;98335.50;4916543;29;20032;-78
2023/03/14 01:16:52;;;;;;;2.30;1.52;;;;;;;9.97;100.00;98321.56;4900120;29;20076;-79
2023/03/14 01:19:19;;;;;;;2.72;1.73;;;;;;;9.90;100.00;98327.25;4876116;29;20044;-79
2023/03/14 01:21:46;;;;;;;2.08;1.58;;;;;;;9.90;100.00;98328.09;4899964;29;20036;-79
2023/03/14 01:24:12;;;;;;;2.33;1.50;;;;;;;9.87;100.00;98333.56;4899439;29;20079;-80
2023/03/14 01:26:39;;;;;;;1.95;1.35;;;;;;;9.92;100.00;98331.53;4917005;29;20052;-78
2023/03/14 01:29:06;;;;;;;2.72;1.75;;;;;;;9.84;100.00;98339.00;4888049;29;20043;-80
2023/03/14 01:31:32;;;;;;;2.53;1.38;;;;;;;9.75;100.00;98347.38;4883467;29;20052;-78
2023/03/14 01:33:59;;;;;;;1.85;1.50;;;;;;;9.75;100.00;98350.03;4870214;29;20041;-79
2023/03/14 01:36:26;;;;;;;1.90;1.30;;;;;;;9.74;100.00;98372.91;4896920;29;20395;-81
2023/03/14 01:38:55;;;;;;;1.77;1.30;;;;;;;9.72;100.00;98381.84;4898908;29;20059;-78
2023/03/14 01:41:24;;;;;;;2.92;1.42;;;;;;;9.71;100.00;98375.72;4899679;29;20036;-78
2023/03/14 01:43:51;;;;;;;1.88;1.35;;;;;;;9.68;100.00;98367.97;4884081;29;20040;-78
2023/03/14 01:46:24;;;;;;;3.03;1.60;;;;;;;9.66;100.00;98376.88;4916037;29;20115;-78
2023/03/14 01:48:51;;;;;;;1.83;1.63;;;;;;;9.73;100.00;98379.13;4883606;29;20072;-78
2023/03/14 01:51:25;;;;;;;1.92;1.52;;;;;;;9.72;100.00;98387.97;4898870;29;20104;-78
2023/03/14 01:53:55;;;;;;;2.47;1.45;;;;;;;9.80;100.00;98400.75;4899457;29;20067;-80
2023/03/14 01:56:23;;;;;;;2.13;1.30;;;;;;;9.79;100.00;98396.41;4883790;29;20048;-78
2023/03/14 01:58:51;;;;;;;1.98;1.40;;;;;;;9.75;100.00;98387.81;4899425;29;20047;-79
2023/03/14 02:01:20;;;;;;;1.95;1.23;;;;;;;9.86;100.00;98382.81;4883846;29;20037;-78
2023/03/14 02:03:51;;;;;;;2.20;1.30;;;;;;;9.87;100.00;98381.03;4915068;29;20048;-79
2023/03/14 02:06:19;;;;;;;4.85;2.47;;;;;;;9.98;100.00;98383.91;4899891;29;20040;-78
2023/03/14 02:08:49;;;;;;;2.13;1.40;;;;;;;10.01;100.00;98372.38;4897892;29;20100;-79
2023/03/14 02:11:17;;;;;;;2.20;1.23;;;;;;;9.93;100.00;98356.97;4899429;29;20478;-79
2023/03/14 02:13:44;;;;;;;2.10;1.15;;;;;;;10.00;100.00;98375.91;4897799;29;20044;-78
2023/03/14 02:16:11;;;;;;;2.70;1.30;;;;;;;9.98;100.00;98370.72;4868552;29;20052;-78
2023/03/14 02:18:40;;;;;;;2.53;1.40;;;;;;;10.01;100.00;98372.38;4884032;29;20403;-79
2023/03/14 02:21:33;;;;;;;2.20;1.20;;;;;;;9.98;100.00;98372.53;4879735;29;20751;-78
2023/03/14 02:24:19;;;;;;;2.40;1.38;;;;;;;9.99;100.00;98358.41;4883325;29;20044;-79
2023/03/14 02:27:11;;;;;;;5.20;2.08;;;;;;;10.00;100.00;98357.44;4886716;29;20059;-80
2023/03/14 02:29:45;;;;;;;2.10;1.58;;;;;;;10.00;100.00;98350.38;4880616;29;20057;-79
2023/03/14 02:32:12;;;;;;;7.32;1.75;;;;;;;10.01;100.00;98353.91;4899008;29;20076;-80
2023/03/14 02:34:41;;;;;;;2.15;1.10;;;;;;;9.95;100.00;98333.13;4883190;29;20048;-78
2023/03/14 02:37:07;;;;;;;2.08;1.30;;;;;;;9.94;100.00;98324.38;4883140;29;20047;-78
2023/03/14 02:39:38;;;;;;;3.00;1.75;;;;;;;9.93;100.00;98335.00;4870907;29;20079;-79
2023/03/14 02:42:04;;;;;;;1.75;1.10;;;;;;;9.95;100.00;98331.34;4897481;29;20028;-79
2023/03/14 02:44:31;;;;;;;1.95;1.20;;;;;;;9.96;100.00;98316.38;4894254;29;20075;-78
2023/03/14 02:46:58;;;;;;;1.48;1.20;;;;;;;9.99;100.00;98314.41;4886000;29;20100;-78
2023/03/14 02:49:25;;;;;;;3.40;1.33;;;;;;;9.93;100.00;98311.28;4867387;29;20044;-79
2023/03/14 02:51:52;;;;;;;4.22;1.20;;;;;;;9.96;100.00;98300.53;4867227;29;20036;-81
2023/03/14 02:54:19;;;;;;;3.25;1.13;;;;;;;9.93;100.00;98295.44;4913746;23;20047;-79
2023/03/14 02:56:46;;;;;;;2.15;1.33;;;;;;;9.92;100.00;98305.16;4920090;29;20099;-82
2023/03/14 02:59:12;;;;;;;1.83;1.10;;;;;;;10.02;100.00;98289.66;4907422;29;20043;-82
2023/03/14 03:01:39;;;;;;;2.55;1.25;;;;;;;9.96;100.00;98284.72;4887830;29;20067;-84
2023/03/14 03:04:06;;;;;;;3.30;1.30;;;;;;;10.02;100.00;98281.75;4902934;29;20058;-81
2023/03/14 03:06:32;;;;;;;1.40;1.10;;;;;;;9.92;100.00;98275.25;4896449;29;20045;-80
2023/03/14 03:08:59;;;;;;;1.88;1.17;;;;;;;9.95;100.00;98275.97;4868147;29;20051;-80
2023/03/14 03:11:26;;;;;;;2.15;1.60;;;;;;;9.98;100.00;98270.50;4873839;29;20104;-81
2023/03/14 03:13:52;;;;;;;1.92;1.08;;;;;;;9.87;100.00;98263.19;4897431;29;20127;-81
2023/03/14 03:16:19;;;;;;;1.50;1.17;;;;;;;9.90;100.00;98256.88;4903952;29;20067;-80
2023/03/14 03:18:46;;;;;;;1.63;1.33;;;;;;;9.93;100.00;98253.25;4884054;29;20052;-80
2023/03/14 03:21:12;;;;;;;1.42;1.10;;;;;;;9.95;100.00;98241.66;4903494;29;20036;-80
2023/03/14 03:23:39;;;;;;;2.58;1.20;;;;;;;9.90;100.00;98248.13;4888038;29;20129;-80
2023/03/14 03:26:06;;;;;;;1.70;1.10;;;;;;;9.88;100.00;98254.34;4901791;29;20090;-81
2023/03/14 03:28:32;;;;;;;2.75;1.92;;;;;;;9.82;100.00;98252.03;4900072;29;20504;-81
2023/03/14 03:31:06;;;;;;;1.80;1.20;;;;;;;9.80;100.00;98245.16;4893714;29;20041;-81
2023/03/14 03:33:33;;;;;;;;;;;;;;;9.83;100.00;98248.47;4874415;29;20409;-80
2023/03/14 03:36:00;;;;;;;1.83;1.30;;;;;;;9.90;100.00;98248.13;4896372;29;19974;-80
2023/03/14 03:38:26;;;;;;;2.20;1.27;;;;;;;9.85;100.00;98253.69;4903560;29;20845;-80
2023/03/14 03:40:53;;;;;;;2.65;1.30;;;;;;;9.93;100.00;98250.63;4912270;29;20043;-81
2023/03/14 03:43:20;;;;;;;1.92;1.30;;;;;;;9.91;100.00;98257.75;4880957;29;20059;-81
2023/03/14 03:45:46;;;;;;;2.13;1.40;;;;;;;9.95;100.00;98268.03;4890355;29;20043;-82
2023/03/14 03:48:13;;;;;;;1.42;1.20;;;;;;;9.92;100.00;98260.31;4877538;29;20048;-81
2023/03/14 03:50:46;;;;;;;2.15;1.10;;;;;;;9.90;100.00;98248.13;4905199;29;20043;-80
2023/03/14 03:53:13;;;;;;;1.40;1.00;;;;;;;9.87;100.00;98260.56;4881452;29;20040;-82
2023/03/14 03:55:48;;;;;;;1.13;0.93;;;;;;;9.81;100.00;98268.81;4911227;29;20064;-81
2023/03/14 03:58:15;;;;;;;1.50;1.05;;;;;;;9.78;100.00;98265.50;4897314;29;20104;-81
2023/03/14 04:00:42;;;;;;;1.92;1.00;;;;;;;9.73;100.00;98262.25;4881883;29;20051;-79
2023/03/14 04:03:08;;;;;;;3.05;0.90;;;;;;;9.84;100.00;98263.38;4887393;29;20095;-80
2023/03/14 04:05:35;;;;;;;3.45;1.20;;;;;;;9.86;100.00;98252.75;4899626;29;20143;-80
2023/03/14 04:08:02;;;;;;;2.00;1.27;;;;;;;9.91;100.00;98241.91;4911440;29;20044;-82
2023/03/14 04:10:29;;;;;;;2.25;1.10;;;;;;;9.82;100.00;98243.28;4905837;29;20039;-80
2023/03/14 04:12:56;;;;;;;1.33;0.95;;;;;;;9.78;100.00;98255.81;4898177;29;20107;-80
2023/03/14 04:15:23;;;;;;;1.63;1.05;;;;;;;9.84;100.00;98258.09;4906277;29;20051;-79
2023/03/14 04:17:49;;;;;;;3.28;1.02;;;;;;;9.82;100.00;98264.38;4896830;29;20044;-80
2023/03/14 04:20:16;;;;;;;1.48;1.00;;;;;;;9.73;100.00;98260.47;4901336;29;20519;-82
2023/03/14 04:22:42;;;;;;;2.22;1.15;;;;;;;9.78;100.00;98260.22;4896804;29;20085;-81
2023/03/14 04:25:10;;;;;;;2.53;1.67;;;;;;;9.79;100.00;98254.84;4899292;29;20487;-83
2023/03/14 04:27:37;;;;;;;1.20;1.10;;;;;;;9.82;100.00;98252.03;4913269;29;20044;-80
2023/03/14 04:30:03;;;;;;;1.33;0.98;;;;;;;9.76;100.00;98249.78;4898548;29;20040;-80
2023/03/14 04:32:30;;;;;;;1.95;1.20;;;;;;;9.71;100.00;98254.44;4895580;29;20760;-80
2023/03/14 04:34:57;;;;;;;2.38;1.33;;;;;;;9.85;100.00;98257.16;4890612;29;20548;-81
2023/03/14 04:37:24;;;;;;;1.45;1.20;;;;;;;9.89;100.00;98249.91;4927175;29;20036;-80
2023/03/14 04:39:50;;;;;;;2.13;0.98;;;;;;;9.79;100.00;98241.69;4886215;29;20401;-81
2023/03/14 04:42:19;;;;;;;1.60;1.00;;;;;;;9.88;100.00;98235.88;4906847;29;20050;-80
2023/03/14 04:44:46;;;;;;;2.17;1.10;;;;;;;9.82;100.00;98233.59;4899216;29;20050;-82
2023/03/14 04:47:13;;;;;;;1.77;1.00;;;;;;;9.81;100.00;98233.69;4903168;29;20048;-82
2023/03/14 04:49:40;;;;;;;3.17;1.00;;;;;;;9.76;100.00;98225.19;4915502;29;20044;-80
2023/03/14 04:52:06;;;;;;;2.70;1.20;;;;;;;9.77;100.00;98222.47;4905791;29;20080;-81
2023/03/14 04:54:33;;;;;;;1.92;1.20;;;;;;;9.76;100.00;98217.28;4873662;29;20139;-81
2023/03/14 04:57:00;;;;;;;1.65;1.23;;;;;;;9.82;100.00;98212.47;4894988;29;20126;-81
2023/03/14 04:59:26;;;;;;;1.27;0.90;;;;;;;9.76;100.00;98209.38;4890089;29;20045;-83
2023/03/14 05:01:53;;;;;;;1.95;1.00;;;;;;;9.82;100.00;98201.94;4890636;29;20037;-83
2023/03/14 05:04:19;;;;;;;1.60;1.10;;;;;;;9.70;100.00;98200.00;4913731;29;20079;-81
2023/03/14 05:06:46;;;;;;;2.63;1.13;;;;;;;9.65;100.00;98196.75;4876836;29;20044;-82
2023/03/14 05:09:13;;;;;;;1.67;1.20;;;;;;;9.78;100.00;98200.44;4904322;29;20067;-81
2023/03/14 05:11:39;;;;;;;1.65;0.93;;;;;;;9.74;100.00;98211.22;4901054;29;20065;-82
2023/03/14 05:14:06;;;;;;;1.63;1.10;;;;;;;9.68;100.00;98206.31;4887983;29;20447;-82
2023/03/14 05:16:33;;;;;;;1.60;0.98;;;;;;;9.70;100.00;98212.34;4898664;29;20447;-82
2023/03/14 05:19:01;;;;;;;1.40;0.90;;;;;;;9.70;100.00;98212.34;4914767;29;20124;-82
2023/03/14 05:21:27;;;;;;;2.00;1.45;;;;;;;9.68;100.00;98203.69;4898488;29;20032;-81
2023/03/14 05:23:54;;;;;;;1.35;1.15;;;;;;;9.62;100.00;98196.94;4904675;29;20068;-80
2023/03/14 05:26:21;;;;;;;1.02;0.90;;;;;;;9.61;100.00;98191.75;4882914;29;20463;-81
2023/03/14 05:28:47;;;;;;;1.65;0.85;;;;;;;9.57;100.00;98191.91;4917560;29;20541;-82
2023/03/14 05:31:14;;;;;;;2.13;1.10;;;;;;;9.53;100.00;98187.75;4891799;29;20036;-81
2023/03/14 05:33:41;;;;;;;1.98;1.10;;;;;;;9.69;100.00;98176.38;4904466;29;20491;-80
2023/03/14 05:36:08;;;;;;;0.93;0.80;;;;;;;9.57;100.00;98183.16;4885488;29;20037;-82
2023/03/14 05:38:35;;;;;;;1.77;0.90;;;;;;;9.52;100.00;98193.13;4916711;29;20066;-81
2023/03/14 05:41:01;;;;;;;1.02;0.93;;;;;;;9.65;100.00;98191.50;4900341;29;20044;-81
2023/03/14 05:43:28;;;;;;;1.48;1.10;;;;;;;9.61;100.00;98208.44;4918263;29;20055;-83
2023/03/14 05:45:55;;;;;;;3.10;1.00;;;;;;;9.64;100.00;98188.94;4886241;29;20040;-81
2023/03/14 05:48:21;;;;;;;2.78;1.00;;;;;;;9.66;100.00;98182.66;4901595;29;20463;-83
2023/03/14 05:50:54;;;;;;;1.60;1.02;;;;;;;9.70;100.00;98176.28;4905775;29;20054;-82
2023/03/14 05:53:21;;;;;;;1.02;0.90;;;;;;;9.75;100.00;98173.38;4890795;29;20576;-80
2023/03/14 05:55:51;;;;;;;2.00;1.00;;;;;;;9.82;100.00;98172.09;4900108;29;20490;-80
2023/03/14 05:58:18;;;;;;;2.45;1.13;;;;;;;9.66;100.00;98171.25;4932092;29;20044;-82
2023/03/14 06:00:44;;;;;;;2.05;1.40;;;;;;;9.69;100.00;98176.38;4899516;29;20043;-82
2023/03/14 06:03:11;;;;;;;1.48;0.93;;;;;;;9.74;100.00;98171.66;4883771;29;20628;-82
2023/03/14 06:05:38;;;;;;;1.58;0.90;;;;;;;9.68;100.00;98186.06;4883155;29;20052;-80
2023/03/14 06:08:05;;;;;;;2.55;1.00;;;;;;;9.75;100.00;98186.53;4886725;29;20101;-82
2023/03/14 06:10:31;;;;;;;1.35;1.02;;;;;;;9.78;100.00;98176.69;4890724;29;20064;-81
2023/03/14 06:12:58;;;;;;;2.03;1.00;;;;;;;9.73;100.00;98172.59;4912011;29;20052;-80
2023/03/14 06:15:25;;;;;;;1.30;1.08;;;;;;;9.77;100.00;98193.47;4923820;29;20053;-82
2023/03/14 06:17:54;;;;;;;1.50;0.90;;;;;;;9.81;100.00;98184.41;4910629;29;20048;-81
2023/03/14 06:20:20;;;;;;;1.52;1.23;;;;;;;9.78;100.00;98166.16;4900621;29;20513;-82
2023/03/14 06:22:47;;;;;;;1.75;0.98;;;;;;;9.87;100.00;98184.06;4894293;29;20035;-82
2023/03/14 06:25:14;;;;;;;1.70;1.10;;;;;;;9.84;100.00;98184.28;4883729;29;20048;-82
2023/03/14 06:27:40;;;;;;;2.47;1.10;;;;;;;9.89;100.00;98176.06;4876138;29;20083;-82
2023/03/14 06:30:08;;;;;;;3.58;1.10;;;;;;;9.90;100.00;98179.56;4896114;29;20048;-80
2023/03/14 06:32:34;;;;;;;1.17;0.93;;;;;;;9.90;100.00;98175.13;4891407;29;20519;-80
2023/03/14 06:35:01;;;;;;;1.15;1.00;;;;;;;9.86;100.00;98184.19;4914733;29;20100;-82
2023/03/14 06:37:29;;;;;;;3.33;1.30;;;;;;;10.00;100.00;98175.44;4900678;29;20108;-81
2023/03/14 06:39:55;;;;;;;2.17;1.13;;;;;;;9.95;100.00;98175.72;4899817;29;20190;-81
2023/03/14 06:42:22;;;;;;;2.42;1.38;;;;;;;10.02;100.00;98174.44;4900183;29;20055;-82
2023/03/14 06:44:49;;;;;;;2.05;0.93;;;;;;;10.11;100.00;98167.78;4890119;29;20040;-80
2023/03/14 06:47:15;;;;;;;1.10;0.90;;;;;;;10.10;100.00;98177.50;4892579;29;20091;-80
2023/03/14 06:49:42;;;;;;;1.00;0.90;;;;;;;10.24;100.00;98192.53;4908928;29;20044;-82
2023/03/14 06:52:09;;;;;;;1.50;0.98;;;;;;;10.25;100.00;98186.31;4900369;29;20032;-80
2023/03/14 06:54:35;;;;;;;1.58;0.98;;;;;;;10.31;100.00;98196.50;4881432;29;20047;-80
2023/03/14 06:57:02;;;;;;;2.97;1.10;;;;;;;10.38;100.00;98189.94;4921825;29;20047;-81
2023/03/14 06:59:29;;;;;;;2.40;1.13;;;;;;;10.43;100.00;98185.25;4895915;29;20047;-81
2023/03/14 07:01:55;;;;;;;3.25;1.10;;;;;;;10.43;100.00;98198.44;4899066;29;20040;-81
2023/03/14 07:04:22;;;;;;;2.53;1.40;;;;;;;10.56;100.00;98203.00;4904646;29;20479;-81
2023/03/14 07:06:48;;;;;;;3.08;1.33;;;;;;;10.65;100.00;98205.06;4903970;29;20128;-80
2023/03/14 07:09:17;;;;;;;3.80;1.30;;;;;;;10.66;100.00;98204.97;4912079;29;20437;-80
2023/03/14 07:11:43;;;;;;;1.70;1.00;;;;;;;10.73;100.00;98213.38;4923353;29;20123;-80
2023/03/14 07:14:10;;;;;;;1.23;1.00;;;;;;;10.75;100.00;98213.28;4908678;29;20052;-82
2023/03/14 07:16:37;;;;;;;2.63;1.15;;;;;;;10.83;100.00;98224.25;4900556;29;20741;-80
2023/03/14 07:19:03;;;;;;;2.70;1.58;;;;;;;10.91;100.00;98222.00;4914218;29;20096;-80
2023/03/14 07:21:31;;;;;;;2.65;1.20;;;;;;;10.92;100.00;98229.81;4873598;29;20048;-80
2023/03/14 07:23:58;;;;;;;1.48;1.13;;;;;;;10.94;100.00;98225.31;4911957;29;20043;-79
2023/03/14 07:26:25;;;;;;;4.20;1.60;;;;;;;10.93;99.51;98230.66;4876742;29;20433;-80
2023/03/14 07:28:51;;;;;;;2.03;1.83;;;;;;;10.89;99.88;98239.72;4912372;29;20037;-80
2023/03/14 07:31:18;;;;;;;3.65;1.38;;;;;;;10.87;100.00;98239.81;4908310;29;20051;-80
2023/03/14 07:33:46;;;;;;;2.15;1.05;;;;;;;10.86;99.36;98227.56;4911890;29;20093;-81
2023/03/14 07:36:29;;;;;;;3.35;1.30;;;;;;;10.96;98.67;98233.13;4918681;29;20040;-82
2023/03/14 07:39:42;;;;;;;2.00;1.20;;;;;;;11.13;99.40;98234.75;4902811;29;20044;-80
2023/03/14 07:42:18;;;;;;;2.33;1.02;;;;;;;11.25;99.44;98241.91;4893463;29;20036;-81
2023/03/14 07:44:50;;;;;;;6.45;2.30;;;;;;;11.42;97.65;98239.06;4909052;29;20044;-79
2023/03/14 07:47:17;;;;;;;1.77;1.30;;;;;;;11.55;95.59;98231.22;4893747;29;20060;-80
2023/03/14 07:49:49;;;;;;;2.55;1.10;;;;;;;11.60;93.75;98234.41;4921743;29;20064;-80
2023/03/14 07:52:17;;;;;;;2.30;1.20;;;;;;;11.66;93.57;98231.38;4890256;29;20055;-80
2023/03/14 07:54:47;;;;;;;1.75;1.23;;;;;;;11.75;92.86;98243.19;4890252;29;20036;-80
2023/03/14 07:57:14;;;;;;;1.92;1.35;;;;;;;11.80;90.96;98234.03;4895173;29;20059;-79
2023/03/14 07:59:41;;;;;;;2.25;1.10;;;;;;;11.86;91.00;98237.25;4911495;29;20108;-81
2023/03/14 08:02:11;;;;;;;1.13;1.05;;;;;;;11.94;90.31;98229.66;4887582;29;20044;-80
2023/03/14 08:04:39;;;;;;;2.83;1.40;;;;;;;11.99;90.49;98232.84;4891917;29;20550;-81
2023/03/14 08:07:06;;;;;;;2.60;1.48;;;;;;;11.98;88.67;98236.44;4883430;29;20041;-80
2023/03/14 08:09:33;;;;;;;2.30;1.17;;;;;;;12.02;89.05;98224.69;4927330;29;20096;-81
2023/03/14 08:12:00;;;;;;;7.88;2.42;;;;;;;12.01;87.34;98238.88;4879231;29;20494;-79
2023/03/14 08:14:28;;;;;;;1.90;1.60;;;;;;;12.08;88.29;98226.97;4888405;29;20720;-81
2023/03/14 08:16:55;;;;;;;3.58;1.30;;;;;;;12.14;87.15;98234.50;4916623;29;20040;-80
2023/03/14 08:19:22;;;;;;;2.95;1.30;;;;;;;12.22;87.79;98221.63;4909019;29;20051;-81
2023/03/14 08:21:48;;;;;;;4.68;1.17;;;;;;;12.34;87.48;98233.19;4899896;29;20036;-80
2023/03/14 08:24:15;;;;;;;4.40;1.40;;;;;;;12.43;85.56;98232.56;4907126;29;20045;-81
2023/03/14 08:26:42;;;;;;;3.38;1.50;;;;;;;12.51;84.69;98221.47;4874752;29;20386;-81
2023/03/14 08:29:08;;;;;;;2.47;1.45;;;;;;;12.52;83.83;98224.00;4910421;29;20043;-80
2023/03/14 08:31:35;;;;;;;2.90;1.27;;;;;;;12.65;83.99;98232.00;4896995;29;20048;-82
2023/03/14 08:34:02;;;;;;;2.70;1.20;;;;;;;12.66;81.34;98223.94;4915902;29;20048;-81
2023/03/14 08:36:29;;;;;;;2.97;1.20;;;;;;;12.65;82.20;98224.88;4912899;29;20091;-80
2023/03/14 08:38:56;;;;;;;2.67;1.38;;;;;;;12.62;82.08;98221.63;4902495;29;20054;-81
2023/03/14 08:41:23;;;;;;;2.38;1.10;;;;;;;12.64;82.83;98217.06;4890573;29;20072;-81
2023/03/14 08:43:49;;;;;;;4.45;2.35;;;;;;;12.64;82.28;98217.91;4915482;29;20040;-80
2023/03/14 08:46:16;;;;;;;3.30;1.00;;;;;;;12.64;83.31;98215.25;4917805;29;20044;-81
2023/03/14 08:48:43;;;;;;;2.03;1.00;;;;;;;12.66;84.04;98216.00;4925291;29;20079;-80
2023/03/14 08:51:12;;;;;;;1.63;1.10;;;;;;;12.83;81.75;98214.00;4923094;29;20044;-81
2023/03/14 08:53:39;;;;;;;2.90;1.60;;;;;;;12.92;79.98;98211.56;4897090;29;20055;-82
2023/03/14 08:56:06;;;;;;;2.45;1.10;;;;;;;12.97;81.04;98205.94;4891911;29;20155;-82
2023/03/14 08:58:33;;;;;;;4.03;1.20;;;;;;;13.08;82.85;98216.66;4912925;29;20055;-83
2023/03/14 09:01:00;;;;;;;4.38;1.58;;;;;;;13.18;79.20;98223.00;4933198;29;20044;-80
2023/03/14 09:03:26;;;;;;;2.08;1.20;;;;;;;13.14;78.80;98216.22;4925502;29;20036;-81
2023/03/14 09:05:53;;;;;;;3.28;1.20;;;;;;;13.19;78.65;98222.06;4898506;29;20101;-81
2023/03/14 09:08:20;;;;;;;1.90;1.00;;;;;;;13.27;77.65;98228.66;4904598;29;20449;-81
2023/03/14 09:10:46;;;;;;;2.03;1.00;;;;;;;13.24;77.70;98227.91;4861374;29;20644;-81
2023/03/14 09:13:13;;;;;;;2.22;0.90;;;;;;;13.34;76.57;98220.16;4890958;29;20032;-81
2023/03/14 09:15:42;;;;;;;3.22;1.00;;;;;;;13.44;77.15;98220.34;4881258;29;20187;-81
2023/03/14 09:18:08;;;;;;;0.95;0.80;;;;;;;13.45;77.61;98222.91;4910043;29;20063;-81
2023/03/14 09:20:35;;;;;;;1.73;0.90;;;;;;;13.41;76.36;98225.88;4903559;29;20502;-79
2023/03/14 09:23:02;;;;;;;1.92;1.02;;;;;;;13.48;76.42;98224.50;4897484;29;20044;-80
2023/03/14 09:25:29;;;;;;;1.95;0.98;;;;;;;13.60;74.67;98231.56;4891521;29;20044;-81
2023/03/14 09:27:55;;;;;;;3.05;1.10;;;;;;;13.52;73.44;98223.28;4908272;29;20486;-80
2023/03/14 09:30:22;;;;;;;5.30;1.23;;;;;;;13.63;74.59;98223.41;4896380;29;20054;-81
2023/03/14 09:32:49;;;;;;;1.77;1.02;;;;;;;13.72;73.24;98222.75;4938894;29;20068;-79
2023/03/14 09:35:15;;;;;;;3.17;1.52;;;;;;;13.75;71.46;98225.16;4927875;29;20036;-82
2023/03/14 09:37:42;;;;;;;1.98;1.02;;;;;;;13.90;72.94;98217.06;4898944;29;20054;-82
2023/03/14 09:40:13;;;;;;;2.40;1.23;;;;;;;13.92;69.69;98215.13;4905495;29;20127;-81
2023/03/14 09:42:40;;;;;;;3.38;1.20;;;;;;;14.00;69.75;98218.91;4921063;29;20036;-81
2023/03/14 09:45:23;;;;;;;4.00;1.63;;;;;;;13.98;68.93;98204.06;4904619;29;20051;-85
2023/03/14 09:47:50;;;;;;;4.38;1.00;;;;;;;13.87;68.66;98210.13;4940015;29;20063;-82
2023/03/14 09:50:27;;;;;;;2.00;1.02;;;;;;;13.47;70.23;98209.53;4888027;29;20052;-81
2023/03/14 09:53:01;;;;;;;3.28;0.93;;;;;;;13.51;71.35;98214.50;4900839;29;20047;-83
2023/03/14 09:55:27;;;;;;;2.33;1.42;;;;;;;13.40;71.03;98225.03;4901220;29;20053;-82
2023/03/14 09:58:03;;;;;;;1.33;0.98;;;;;;;13.35;73.42;98228.94;4904148;29;20036;-82
2023/03/14 10:00:31;;;;;;;2.38;0.90;;;;;;;13.30;71.71;98217.84;4904108;29;20055;-82
2023/03/14 10:03:13;;;;;;;2.03;0.90;;;;;;;13.19;71.94;98226.50;4877348;29;20051;-82
2023/03/14 10:05:43;;;;;;;4.15;1.10;;;;;;;12.91;71.68;98223.13;4902678;29;20040;-82
2023/03/14 10:08:13;;;;;;;3.30;1.05;;;;;;;12.83;75.10;98228.09;4895828;29;20040;-82
2023/03/14 10:10:40;;;;;;;1.98;1.30;;;;;;;12.78;74.67;98237.28;4904781;29;20036;-83
2023/03/14 10:13:21;;;;;;;1.73;1.00;;;;;;;12.71;75.95;98233.38;4905584;29;20127;-83
2023/03/14 10:15:52;;;;;;;4.55;1.30;;;;;;;12.60;76.60;98231.44;4896644;29;20048;-83
2023/03/14 10:18:20;;;;;;;2.30;1.00;;;;;;;12.62;77.64;98238.34;4901583;29;20037;-82
2023/03/14 10:21:02;;;;;;;2.10;1.20;;;;;;;12.61;75.32;98234.00;4903025;29;20061;-82
2023/03/14 10:23:30;;;;;;;2.58;1.08;;;;;;;12.63;76.53;98233.91;4902191;29;20055;-83
2023/03/14 10:26:08;;;;;;;1.40;1.05;;;;;;;12.66;76.76;98238.97;4872205;29;20653;-84
2023/03/14 10:28:51;;;;;;;1.23;1.00;;;;;;;12.63;76.55;98241.84;4906976;29;20421;-84
2023/03/14 10:31:53;;;;;;;3.13;1.00;;;;;;;12.48;76.75;98230.47;4887015;29;20059;-84
2023/03/14 10:34:24;;;;;;;3.95;1.08;;;;;;;12.54;78.23;98239.81;4893783;29;20060;-84
2023/03/14 10:36:56;;;;;;;3.72;1.20;;;;;;;12.52;79.01;98252.28;4899145;29;20056;-81
2023/03/14 10:39:43;;;;;;;2.08;1.00;;;;;;;12.52;79.46;98249.66;4885456;29;20048;-83
2023/03/14 10:42:17;;;;;;;1.73;1.23;;;;;;;12.42;81.81;98246.75;4890660;29;20047;-83
2023/03/14 10:44:44;;;;;;;2.85;1.10;;;;;;;12.49;79.69;98257.81;4894057;29;20450;-83
2023/03/14 10:47:17;;;;;;;2.97;1.08;;;;;;;12.46;80.23;98247.44;4908105;29;20047;-82
2023/03/14 10:49:44;;;;;;;3.17;1.10;;;;;;;12.45;80.97;98249.22;4905598;29;20059;-82
2023/03/14 10:52:26;;;;;;;2.72;1.00;;;;;;;12.49;79.90;98247.22;4918427;29;20063;-83
2023/03/14 10:55:09;;;;;;;3.35;1.00;;;;;;;12.50;79.08;98249.75;4906327;29;20107;-83
2023/03/14 10:57:40;;;;;;;2.00;1.00;;;;;;;12.44;80.62;98249.31;4907514;29;20052;-82
2023/03/14 11:00:21;;;;;;;1.92;0.90;;;;;;;12.49;81.33;98252.50;4909470;29;20135;-82
2023/03/14 11:03:12;;;;;;;1.80;1.08;;;;;;;12.45;81.50;98248.38;4878980;29;20101;-83
2023/03/14 11:06:07;;;;;;;3.67;1.15;;;;;;;12.56;80.79;98259.09;4926085;29;20265;-81
2023/03/14 11:08:55;;;;;;;4.55;1.35;;;;;;;12.64;79.69;98251.50;4901472;29;20044;-83
2023/03/14 11:11:25;;;;;;;1.88;1.00;;;;;;;12.71;79.11;98246.63;4941204;29;20857;-83
2023/03/14 11:14:03;;;;;;;3.03;1.13;;;;;;;12.70;78.67;98255.53;4934298;29;20035;-83
2023/03/14 11:16:52;;;;;;;2.58;1.40;;;;;;;12.60;78.01;98258.78;4887916;29;20052;-83
2023/03/14 11:19:32;;;;;;;2.35;1.60;;;;;;;12.64;77.68;98248.84;4904963;29;20047;-82
2023/03/14 11:22:34;;;;;;;2.50;1.30;;;;;;;12.66;78.03;98239.84;4926918;29;20108;-82
2023/03/14 11:25:04;;;;;;;2.97;1.40;;;;;;;12.62;80.01;98250.75;4955520;23;20048;-81
2023/03/14 11:27:53;;;;;;;3.60;1.10;;;;;;;12.72;79.06;98248.31;4875218;29;20055;-81
2023/03/14 11:30:53;;;;;;;2.45;1.10;;;;;;;12.86;78.55;98233.19;4913543;29;20036;-81
2023/03/14 11:33:25;;;;;;;2.75;1.40;;;;;;;12.98;79.24;98228.84;4852160;29;20056;-82
2023/03/14 11:35:59;;;;;;;1.98;1.05;;;;;;;13.04;78.77;98223.13;4864566;29;20072;-81
2023/03/14 11:38:45;;;;;;;3.50;1.30;;;;;;;13.13;77.66;98227.78;4883135;29;20059;-81
2023/03/14 11:41:17;;;;;;;1.88;1.20;;;;;;;13.11;77.58;98227.03;4898150;29;20071;-81